Time;durP1;ratioP1;P1;durP2;ratioP2;P2;SDS_P1;SDS_P2;PMS_P1;PMS_P2;Temp;Humidity;BMP_temperature;BMP_pressure;BME280_temperature;BME280_humidity;BME280_pressure;Samples;Min_cycle;Max_cycle;Signal;HPM_P1;HPM_P2
2024/01/21 00:01:55;;;;;;;3.70;1.20;;;1.20;96.20;;;;;;5053860;28;20385;-53
2024/01/21 00:04:21;;;;;;;3.00;1.27;;;1.20;96.30;;;;;;5053774;28;20040;-51
2024/01/21 00:06:46;;;;;;;1.93;0.80;;;1.30;96.30;;;;;;5053904;28;20033;-55
2024/01/21 00:09:12;;;;;;;4.07;1.10;;;1.30;96.00;;;;;;5053301;28;20485;-51
2024/01/21 00:11:38;;;;;;;3.93;0.97;;;1.30;95.80;;;;;;5053686;28;20061;-53
2024/01/21 00:14:03;;;;;;;4.27;1.23;;;1.30;95.70;;;;;;5053690;28;20086;-51
2024/01/21 00:16:29;;;;;;;2.93;0.87;;;1.40;95.50;;;;;;5053655;28;20033;-52
2024/01/21 00:18:54;;;;;;;1.93;0.97;;;1.30;95.40;;;;;;5053485;28;20036;-52
2024/01/21 00:21:20;;;;;;;1.13;0.67;;;1.30;95.60;;;;;;5053441;28;20490;-54
2024/01/21 00:23:46;;;;;;;3.93;1.23;;;1.40;95.40;;;;;;5053227;28;20051;-54
2024/01/21 00:26:12;;;;;;;3.27;1.10;;;1.40;95.50;;;;;;5053496;28;20045;-53
2024/01/21 00:28:38;;;;;;;3.77;1.57;;;1.40;95.50;;;;;;5053448;28;20525;-52
2024/01/21 00:31:04;;;;;;;3.00;1.07;;;1.40;95.60;;;;;;5053253;28;20037;-56
2024/01/21 00:33:29;;;;;;;4.37;1.00;;;1.40;95.60;;;;;;5053241;28;20477;-52
2024/01/21 00:35:55;;;;;;;4.27;1.40;;;1.40;95.20;;;;;;5052132;28;20033;-51
2024/01/21 00:38:21;;;;;;;2.30;0.80;;;1.40;94.90;;;;;;5053286;28;20060;-53
2024/01/21 00:40:46;;;;;;;2.47;1.10;;;1.40;95.20;;;;;;5053047;28;20389;-51
2024/01/21 00:43:12;;;;;;;2.57;1.07;;;1.40;95.00;;;;;;5053105;28;20029;-54
2024/01/21 00:45:37;;;;;;;2.33;0.77;;;1.40;95.20;;;;;;5053156;28;20029;-51
2024/01/21 00:48:03;;;;;;;2.10;1.13;;;1.40;95.00;;;;;;5052984;28;20025;-55
2024/01/21 00:50:29;;;;;;;2.60;1.23;;;1.40;95.10;;;;;;5053036;28;20025;-53
2024/01/21 00:52:55;;;;;;;3.63;1.13;;;1.40;95.00;;;;;;5052782;28;20393;-54
2024/01/21 00:55:20;;;;;;;2.27;1.10;;;1.40;95.10;;;;;;5052877;28;20029;-52
2024/01/21 00:57:46;;;;;;;3.23;1.83;;;1.40;95.10;;;;;;5052884;28;20037;-51
2024/01/21 01:00:12;;;;;;;4.03;1.23;;;1.40;95.20;;;;;;5052806;28;20041;-52
2024/01/21 01:02:38;;;;;;;2.73;1.00;;;1.30;95.10;;;;;;5052466;28;20037;-51
2024/01/21 01:05:03;;;;;;;4.23;1.40;;;1.40;95.10;;;;;;5052831;28;20043;-51
2024/01/21 01:07:29;;;;;;;4.73;1.60;;;1.40;95.30;;;;;;5052736;28;20375;-51
2024/01/21 01:09:55;;;;;;;3.07;1.30;;;1.40;95.20;;;;;;5052504;28;20529;-53
2024/01/21 01:12:20;;;;;;;2.47;1.10;;;1.40;95.20;;;;;;5052391;28;20036;-52
2024/01/21 01:14:46;;;;;;;2.10;0.90;;;1.40;95.10;;;;;;5052601;28;20370;-51
2024/01/21 01:17:12;;;;;;;2.93;1.20;;;1.50;95.20;;;;;;5052476;28;20477;-51
2024/01/21 01:19:38;;;;;;;5.30;0.93;;;1.40;95.30;;;;;;5051868;28;20036;-53
2024/01/21 01:22:04;;;;;;;3.10;1.30;;;1.50;94.90;;;;;;5051928;28;20063;-54
2024/01/21 01:24:29;;;;;;;3.60;1.60;;;1.50;95.00;;;;;;5052264;28;20037;-51
2024/01/21 01:26:55;;;;;;;4.50;1.37;;;1.50;95.10;;;;;;5052448;28;20055;-54
2024/01/21 01:29:20;;;;;;;5.97;1.70;;;1.40;95.20;;;;;;5052167;28;20028;-50
2024/01/21 01:31:46;;;;;;;13.33;2.33;;;1.40;95.20;;;;;;5052076;28;20025;-53
2024/01/21 01:34:12;;;;;;;2.77;1.10;;;1.50;95.20;;;;;;5052157;28;20386;-53
2024/01/21 01:36:39;;;;;;;4.37;1.57;;;1.50;95.60;;;;;;5052236;28;20477;-50
2024/01/21 01:39:04;;;;;;;6.23;2.10;;;1.40;95.50;;;;;;5052098;28;20033;-54
2024/01/21 01:41:30;;;;;;;4.77;1.83;;;1.40;95.50;;;;;;5051916;28;20024;-54
2024/01/21 01:43:55;;;;;;;3.90;1.60;;;1.40;95.80;;;;;;5051886;28;20032;-52
2024/01/21 01:46:22;;;;;;;5.03;1.57;;;1.40;95.90;;;;;;5051904;28;20025;-51
2024/01/21 01:48:49;;;;;;;5.13;1.60;;;1.40;95.70;;;;;;5051945;28;20036;-52
2024/01/21 01:51:15;;;;;;;5.33;1.23;;;1.40;95.90;;;;;;5051846;28;20058;-50
2024/01/21 01:53:41;;;;;;;4.20;2.10;;;1.40;95.90;;;;;;5051813;28;20036;-54
2024/01/21 01:56:08;;;;;;;4.73;1.30;;;1.40;95.70;;;;;;5051871;28;20037;-53
2024/01/21 01:58:34;;;;;;;5.53;2.23;;;1.40;95.80;;;;;;5051849;28;20032;-55
2024/01/21 02:01:01;;;;;;;6.33;2.10;;;1.40;95.80;;;;;;5051521;28;20031;-53
2024/01/21 02:03:27;;;;;;;5.27;1.73;;;1.40;95.80;;;;;;5051691;28;20087;-52
2024/01/21 02:05:53;;;;;;;5.93;1.90;;;1.40;95.80;;;;;;5051772;28;20028;-53
2024/01/21 02:08:19;;;;;;;3.37;1.20;;;1.40;96.00;;;;;;5051695;28;20397;-53
2024/01/21 02:10:45;;;;;;;5.60;2.03;;;1.40;95.90;;;;;;5051799;28;20432;-52
2024/01/21 02:13:11;;;;;;;4.13;1.40;;;1.40;96.30;;;;;;5051580;28;20029;-57
2024/01/21 02:15:37;;;;;;;4.97;1.70;;;1.40;96.20;;;;;;5051720;28;20029;-53
2024/01/21 02:18:03;;;;;;;4.93;2.03;;;1.30;96.10;;;;;;5051657;28;20508;-53
2024/01/21 02:20:28;;;;;;;5.27;1.90;;;1.40;96.20;;;;;;5051618;28;20068;-54
2024/01/21 02:23:00;;;;;;;3.87;1.50;;;1.30;96.30;;;;;;5051399;28;20025;-51
2024/01/21 02:25:25;;;;;;;6.00;2.27;;;1.40;96.30;;;;;;5051562;28;20064;-51
2024/01/21 02:27:51;;;;;;;6.57;2.60;;;1.40;96.50;;;;;;5051526;28;20048;-51
2024/01/21 02:30:17;;;;;;;2.33;1.10;;;1.30;96.40;;;;;;5051438;28;20474;-52
2024/01/21 02:32:42;;;;;;;6.00;2.43;;;1.40;96.30;;;;;;5054551;28;20029;-54
2024/01/21 02:35:08;;;;;;;6.00;2.00;;;1.40;96.40;;;;;;5055654;28;20033;-55
2024/01/21 02:37:33;;;;;;;5.67;2.20;;;1.40;96.40;;;;;;5055683;28;20036;-49
2024/01/21 02:39:59;;;;;;;4.37;1.47;;;1.40;96.30;;;;;;5055422;28;20488;-50
2024/01/21 02:42:26;;;;;;;4.63;1.90;;;1.40;96.40;;;;;;5055206;28;20033;-50
2024/01/21 02:44:54;;;;;;;6.93;2.40;;;1.40;96.60;;;;;;5055370;28;20025;-50
2024/01/21 02:47:19;;;;;;;7.23;2.43;;;1.40;96.60;;;;;;5055420;28;20056;-54
2024/01/21 02:49:45;;;;;;;6.70;2.23;;;1.40;96.50;;;;;;5055251;28;20068;-50
2024/01/21 02:52:11;;;;;;;5.77;2.00;;;1.40;96.70;;;;;;5055082;28;20036;-51
2024/01/21 02:54:36;;;;;;;6.13;2.27;;;1.40;96.60;;;;;;5055224;28;20387;-49
2024/01/21 02:57:02;;;;;;;11.97;2.47;;;1.40;96.20;;;;;;5055235;28;20028;-50
2024/01/21 02:59:27;;;;;;;7.00;1.90;;;1.40;96.40;;;;;;5054979;28;20390;-51
2024/01/21 03:01:53;;;;;;;8.13;2.60;;;1.40;96.50;;;;;;5053753;28;20082;-52
2024/01/21 03:04:19;;;;;;;5.97;2.23;;;1.40;96.40;;;;;;5055233;28;20052;-51
2024/01/21 03:06:44;;;;;;;5.80;2.57;;;1.40;96.60;;;;;;5055442;28;20021;-51
2024/01/21 03:09:10;;;;;;;2.93;1.70;;;1.40;96.70;;;;;;5054835;28;20497;-54
2024/01/21 03:11:38;;;;;;;6.03;2.70;;;1.40;96.80;;;;;;5054845;28;20032;-51
2024/01/21 03:14:04;;;;;;;7.40;2.63;;;1.30;96.60;;;;;;5054768;28;20041;-51
2024/01/21 03:16:29;;;;;;;5.77;2.00;;;1.30;96.70;;;;;;5054897;28;20078;-50
2024/01/21 03:18:55;;;;;;;6.43;2.07;;;1.30;96.40;;;;;;5054705;28;20553;-51
2024/01/21 03:21:20;;;;;;;8.03;2.30;;;1.30;96.60;;;;;;5054669;28;20029;-51
2024/01/21 03:23:46;;;;;;;6.07;2.30;;;1.30;96.60;;;;;;5054403;28;20033;-54
2024/01/21 03:26:12;;;;;;;7.67;2.97;;;1.30;96.80;;;;;;5054678;28;20032;-54
2024/01/21 03:28:37;;;;;;;5.40;2.27;;;1.30;96.70;;;;;;5054547;28;20412;-54
2024/01/21 03:31:03;;;;;;;5.63;1.90;;;1.30;96.70;;;;;;5054355;28;20486;-52
2024/01/21 03:33:30;;;;;;;3.93;1.80;;;1.30;96.70;;;;;;5054431;28;20032;-53
2024/01/21 03:35:55;;;;;;;5.80;1.67;;;1.30;96.60;;;;;;5054559;28;20024;-50
2024/01/21 03:38:21;;;;;;;3.70;1.67;;;1.30;96.70;;;;;;5054386;28;20043;-54
2024/01/21 03:40:47;;;;;;;5.57;1.90;;;1.30;96.80;;;;;;5053338;28;20037;-53
2024/01/21 03:43:12;;;;;;;3.23;1.23;;;1.30;96.60;;;;;;5053322;28;20029;-51
2024/01/21 03:45:38;;;;;;;3.37;1.33;;;1.20;96.60;;;;;;5054413;28;20060;-54
2024/01/21 03:48:04;;;;;;;2.40;1.30;;;1.20;96.90;;;;;;5054205;28;20475;-53
2024/01/21 03:50:30;;;;;;;2.50;1.40;;;1.20;96.70;;;;;;5054163;28;20536;-54
2024/01/21 03:52:55;;;;;;;5.30;2.73;;;1.20;96.70;;;;;;5053965;28;20112;-53
2024/01/21 03:55:21;;;;;;;4.90;2.10;;;1.20;96.80;;;;;;5054647;28;20428;-53
2024/01/21 03:57:47;;;;;;;6.77;2.33;;;1.20;96.80;;;;;;5054317;28;20033;-52
2024/01/21 04:00:13;;;;;;;7.23;2.03;;;1.20;96.60;;;;;;5053936;28;20021;-53
2024/01/21 04:02:39;;;;;;;4.33;1.90;;;1.20;96.80;;;;;;5053704;28;20033;-54
2024/01/21 04:05:05;;;;;;;4.30;1.90;;;1.30;96.70;;;;;;5054195;28;20417;-52
2024/01/21 04:07:31;;;;;;;2.80;1.53;;;1.30;96.40;;;;;;5053908;28;20389;-54
2024/01/21 04:09:57;;;;;;;6.80;2.53;;;1.30;96.30;;;;;;5053830;28;20029;-54
2024/01/21 04:12:23;;;;;;;10.37;2.90;;;1.30;96.40;;;;;;5053444;28;20125;-52
2024/01/21 04:14:48;;;;;;;5.57;2.23;;;1.30;96.50;;;;;;5053778;28;20108;-52
2024/01/21 04:17:14;;;;;;;2.87;1.43;;;1.40;96.00;;;;;;5053777;28;20029;-50
2024/01/21 04:19:40;;;;;;;4.07;1.50;;;1.40;96.10;;;;;;5053607;28;20033;-53
2024/01/21 04:22:05;;;;;;;7.30;2.20;;;1.40;95.70;;;;;;5053366;28;20025;-53
2024/01/21 04:24:31;;;;;;;4.73;1.70;;;1.50;95.80;;;;;;5069696;22;20060;-50
2024/01/21 04:26:57;;;;;;;3.37;1.70;;;1.50;95.80;;;;;;5057278;28;20037;-55
2024/01/21 04:29:22;;;;;;;5.47;1.93;;;1.50;95.50;;;;;;5057845;28;20098;-50
2024/01/21 04:31:48;;;;;;;6.43;2.23;;;1.50;95.60;;;;;;5055484;28;20128;-53
2024/01/21 04:34:13;;;;;;;2.73;1.27;;;1.60;95.50;;;;;;5056567;28;20343;-53
2024/01/21 04:36:39;;;;;;;3.73;1.40;;;1.70;95.40;;;;;;5056554;28;20524;-51
2024/01/21 04:39:08;;;;;;;5.77;1.90;;;1.70;95.00;;;;;;5056397;28;20033;-50
2024/01/21 04:41:33;;;;;;;3.27;1.40;;;1.80;95.00;;;;;;5055971;28;20485;-55
2024/01/21 04:43:59;;;;;;;7.27;2.10;;;1.80;94.70;;;;;;5056499;28;20036;-52
2024/01/21 04:46:24;;;;;;;5.30;1.80;;;1.70;94.90;;;;;;5056339;28;20029;-50
2024/01/21 04:48:50;;;;;;;2.47;1.23;;;1.80;94.70;;;;;;5056149;28;20036;-50
2024/01/21 04:51:16;;;;;;;3.10;1.00;;;1.80;94.50;;;;;;5055571;28;20547;-50
2024/01/21 04:53:43;;;;;;;4.73;1.80;;;1.90;94.40;;;;;;5055851;28;20037;-52
2024/01/21 04:56:15;;;;;;;5.53;2.40;;;1.90;94.70;;;;;;5054835;28;20037;-55
2024/01/21 04:58:41;;;;;;;4.10;1.40;;;1.80;94.70;;;;;;5055889;28;20393;-55
2024/01/21 05:01:07;;;;;;;5.93;1.67;;;1.90;94.50;;;;;;5056087;28;20029;-55
2024/01/21 05:03:32;;;;;;;4.23;1.70;;;1.90;94.80;;;;;;5056120;28;20392;-51
2024/01/21 05:05:58;;;;;;;4.37;2.00;;;1.90;94.60;;;;;;5055556;28;20024;-50
2024/01/21 05:08:23;;;;;;;5.93;2.03;;;1.90;94.10;;;;;;5054576;28;20060;-51
2024/01/21 05:10:49;;;;;;;4.67;1.73;;;1.90;94.50;;;;;;5055617;28;20083;-51
2024/01/21 05:13:15;;;;;;;2.87;1.20;;;1.90;94.50;;;;;;5056101;28;20028;-51
2024/01/21 05:15:40;;;;;;;5.60;2.10;;;1.90;94.30;;;;;;5055234;28;20450;-55
2024/01/21 05:18:06;;;;;;;3.67;1.53;;;1.90;94.20;;;;;;5056009;28;20544;-54
2024/01/21 05:20:32;;;;;;;3.73;1.23;;;1.90;94.40;;;;;;5055515;28;20509;-54
2024/01/21 05:22:59;;;;;;;2.27;0.87;;;1.90;94.30;;;;;;5055961;28;20119;-51
2024/01/21 05:25:25;;;;;;;5.90;1.57;;;1.90;94.60;;;;;;5055692;28;20098;-49
2024/01/21 05:27:50;;;;;;;3.27;1.73;;;1.90;94.50;;;;;;5055610;28;20025;-53
2024/01/21 05:30:16;;;;;;;5.23;1.93;;;1.90;94.60;;;;;;5055597;28;20028;-53
2024/01/21 05:32:46;;;;;;;5.57;2.00;;;1.90;94.50;;;;;;5055274;28;20111;-51
2024/01/21 05:35:12;;;;;;;5.00;2.00;;;1.90;94.40;;;;;;5055860;28;20490;-54
2024/01/21 05:37:38;;;;;;;2.80;1.57;;;1.90;94.30;;;;;;5055411;28;20041;-52
2024/01/21 05:40:05;;;;;;;7.63;2.00;;;2.00;94.10;;;;;;5055619;28;20029;-55
2024/01/21 05:42:30;;;;;;;2.30;1.47;;;2.00;94.30;;;;;;5055043;28;20032;-54
2024/01/21 05:44:56;;;;;;;4.50;1.30;;;2.00;94.20;;;;;;5055294;28;20055;-54
2024/01/21 05:47:22;;;;;;;2.70;1.20;;;2.00;94.30;;;;;;5055971;28;20494;-54
2024/01/21 05:49:47;;;;;;;2.83;1.13;;;2.00;94.40;;;;;;5055369;28;20029;-51
2024/01/21 05:52:13;;;;;;;7.33;1.83;;;1.90;94.60;;;;;;5055117;28;20029;-52
2024/01/21 05:54:39;;;;;;;3.50;1.97;;;1.90;94.70;;;;;;5055313;28;20017;-53
2024/01/21 05:57:05;;;;;;;4.07;1.83;;;1.90;94.80;;;;;;5055818;28;20076;-53
2024/01/21 05:59:32;;;;;;;5.60;2.17;;;1.90;94.80;;;;;;5055228;28;20057;-54
2024/01/21 06:01:58;;;;;;;2.70;1.37;;;1.80;95.00;;;;;;5055308;28;20029;-53
2024/01/21 06:04:24;;;;;;;3.27;1.40;;;1.80;95.00;;;;;;5053934;28;20401;-53
2024/01/21 06:06:50;;;;;;;4.40;1.73;;;1.90;94.90;;;;;;5054963;28;20029;-54
2024/01/21 06:09:15;;;;;;;3.10;1.53;;;1.90;95.20;;;;;;5055221;28;20017;-52
2024/01/21 06:11:45;;;;;;;3.77;1.57;;;1.90;95.10;;;;;;5055281;28;20127;-49
2024/01/21 06:14:11;;;;;;;2.03;1.00;;;1.90;95.30;;;;;;5055265;28;20362;-51
2024/01/21 06:16:37;;;;;;;3.93;1.67;;;1.80;95.20;;;;;;5055400;28;20033;-51
2024/01/21 06:19:03;;;;;;;6.90;2.30;;;1.80;95.50;;;;;;5054758;28;20456;-51
2024/01/21 06:21:30;;;;;;;4.23;1.53;;;1.80;95.70;;;;;;5055211;28;20116;-48
2024/01/21 06:23:56;;;;;;;5.80;2.33;;;1.80;95.80;;;;;;5055212;28;20371;-52
2024/01/21 06:26:22;;;;;;;3.57;1.70;;;1.80;95.80;;;;;;5054956;28;20120;-51
2024/01/21 06:28:51;;;;;;;5.87;1.57;;;1.80;95.70;;;;;;5055208;28;20363;-54
2024/01/21 06:31:17;;;;;;;7.38;2.20;;;1.90;95.60;;;;;;5053981;28;20032;-52
2024/01/21 06:33:43;;;;;;;2.13;0.97;;;1.80;95.80;;;;;;5055034;28;20035;-52
2024/01/21 06:36:09;;;;;;;6.83;2.30;;;1.80;95.90;;;;;;5055018;28;20127;-55
2024/01/21 06:38:35;;;;;;;3.70;1.70;;;1.80;96.20;;;;;;5055265;28;20410;-55
2024/01/21 06:41:01;;;;;;;6.60;2.30;;;1.80;96.20;;;;;;5054854;28;20025;-55
2024/01/21 06:43:26;;;;;;;2.27;1.30;;;1.80;96.20;;;;;;5055184;28;20090;-55
2024/01/21 06:45:52;;;;;;;5.23;2.53;;;1.80;96.40;;;;;;5055600;28;20029;-54
2024/01/21 06:48:18;;;;;;;5.67;2.47;;;1.70;96.60;;;;;;5054903;28;20029;-54
2024/01/21 06:50:48;;;;;;;4.40;1.83;;;1.70;96.80;;;;;;5054931;28;20094;-54
2024/01/21 06:53:15;;;;;;;7.67;2.67;;;1.70;96.90;;;;;;5054843;28;20350;-52
2024/01/21 06:55:41;;;;;;;7.00;2.17;;;1.70;97.00;;;;;;5054722;28;20037;-52
2024/01/21 06:58:07;;;;;;;4.87;2.20;;;1.70;96.90;;;;;;5054959;28;20040;-53
2024/01/21 07:00:32;;;;;;;5.53;2.10;;;1.70;97.10;;;;;;5054835;28;20033;-55
2024/01/21 07:02:58;;;;;;;7.10;2.00;;;1.70;97.10;;;;;;5054363;28;20029;-49
2024/01/21 07:05:23;;;;;;;5.07;1.60;;;1.80;97.40;;;;;;5055006;28;20033;-49
2024/01/21 07:07:49;;;;;;;8.53;2.57;;;1.80;97.40;;;;;;5055041;28;20056;-49
2024/01/21 07:10:15;;;;;;;8.83;2.23;;;1.80;97.30;;;;;;5054597;28;20109;-51
2024/01/21 07:12:40;;;;;;;7.03;2.17;;;1.80;97.60;;;;;;5053629;28;20132;-54
2024/01/21 07:15:06;;;;;;;3.93;1.73;;;1.80;97.50;;;;;;5054905;28;20044;-53
2024/01/21 07:17:32;;;;;;;8.97;3.60;;;1.80;97.50;;;;;;5054569;28;20036;-54
2024/01/21 07:19:58;;;;;;;6.60;2.40;;;1.80;98.30;;;;;;5057433;28;20024;-50
2024/01/21 07:22:23;;;;;;;5.40;2.07;;;1.80;97.80;;;;;;5058036;28;20549;-54
2024/01/21 07:24:49;;;;;;;6.37;2.47;;;1.90;97.60;;;;;;5057613;28;20509;-54
2024/01/21 07:27:14;;;;;;;6.43;2.37;;;1.90;97.80;;;;;;5058211;28;20386;-54
2024/01/21 07:29:40;;;;;;;4.20;1.90;;;1.80;97.80;;;;;;5057196;28;20037;-55
2024/01/21 07:32:06;;;;;;;5.33;2.17;;;1.90;97.80;;;;;;5057569;28;20097;-51
2024/01/21 07:34:32;;;;;;;5.00;1.87;;;1.80;97.90;;;;;;5058178;28;20065;-50
2024/01/21 07:36:58;;;;;;;5.60;2.43;;;1.80;98.20;;;;;;5058344;28;20440;-55
2024/01/21 07:39:24;;;;;;;6.20;2.60;;;1.70;98.30;;;;;;5057965;28;20059;-51
2024/01/21 07:41:49;;;;;;;4.93;2.17;;;1.70;98.50;;;;;;5057372;28;20091;-55
2024/01/21 07:44:15;;;;;;;9.90;2.93;;;1.70;98.70;;;;;;5056702;28;20029;-55
2024/01/21 07:46:40;;;;;;;5.40;1.97;;;1.70;98.50;;;;;;5058516;28;20025;-55
2024/01/21 07:49:06;;;;;;;7.67;2.43;;;1.70;98.70;;;;;;5057632;28;20435;-50
2024/01/21 07:51:32;;;;;;;5.57;1.93;;;1.70;98.80;;;;;;5057878;28;20111;-53
2024/01/21 07:53:57;;;;;;;3.80;1.63;;;1.70;98.90;;;;;;5057810;28;20029;-53
2024/01/21 07:56:23;;;;;;;6.80;2.83;;;1.70;99.00;;;;;;5058047;28;20033;-52
2024/01/21 07:58:49;;;;;;;6.80;2.53;;;1.70;99.10;;;;;;5057693;28;20057;-49
2024/01/21 08:01:17;;;;;;;6.70;2.57;;;1.70;99.10;;;;;;5057354;28;20397;-50
2024/01/21 08:03:42;;;;;;;7.60;2.70;;;1.70;99.10;;;;;;5056992;28;20033;-51
2024/01/21 08:06:08;;;;;;;8.90;3.10;;;1.80;99.20;;;;;;5057611;28;20528;-50
2024/01/21 08:08:34;;;;;;;9.70;2.90;;;1.80;99.10;;;;;;5057501;28;20033;-49
2024/01/21 08:11:00;;;;;;;6.50;2.37;;;1.80;99.20;;;;;;5057587;28;20094;-48
2024/01/21 08:13:26;;;;;;;5.53;2.33;;;1.80;98.90;;;;;;5055220;28;20029;-52
2024/01/21 08:15:52;;;;;;;4.90;1.67;;;1.80;99.20;;;;;;5057984;28;20115;-55
2024/01/21 08:18:19;;;;;;;10.97;2.80;;;1.90;98.80;;;;;;5057086;28;20064;-50
2024/01/21 08:20:45;;;;;;;9.10;3.13;;;1.90;98.90;;;;;;5056916;28;20043;-55
2024/01/21 08:23:11;;;;;;;5.90;2.70;;;1.90;98.90;;;;;;5056940;28;20100;-53
2024/01/21 08:25:36;;;;;;;8.67;2.87;;;1.90;98.90;;;;;;5056983;28;20039;-53
2024/01/21 08:28:02;;;;;;;9.47;2.90;;;1.90;98.90;;;;;;5055696;28;20374;-52
2024/01/21 08:30:28;;;;;;;8.47;3.27;;;1.90;99.10;;;;;;5056095;28;20500;-52
2024/01/21 08:32:54;;;;;;;5.20;2.03;;;1.90;99.40;;;;;;5056901;28;20328;-51
2024/01/21 08:35:20;;;;;;;5.87;2.23;;;1.90;99.30;;;;;;5056779;28;20115;-53
2024/01/21 08:37:47;;;;;;;8.63;3.27;;;1.90;99.40;;;;;;5055566;28;20051;-50
2024/01/21 08:40:12;;;;;;;6.47;2.67;;;1.90;99.70;;;;;;5057068;28;20037;-51
2024/01/21 08:42:39;;;;;;;6.40;2.90;;;1.90;99.60;;;;;;5055011;28;20028;-55
2024/01/21 08:45:06;;;;;;;7.50;2.77;;;2.00;99.60;;;;;;5056105;28;20396;-54
2024/01/21 08:47:32;;;;;;;8.50;2.63;;;2.00;99.60;;;;;;5056412;28;20029;-55
2024/01/21 08:49:58;;;;;;;10.50;3.70;;;2.10;99.50;;;;;;5055851;28;20482;-51
2024/01/21 08:52:24;;;;;;;6.83;2.43;;;2.00;99.70;;;;;;5056040;28;20025;-52
2024/01/21 08:54:49;;;;;;;7.40;2.70;;;2.10;99.20;;;;;;5056561;28;20025;-52
2024/01/21 08:57:15;;;;;;;7.27;2.77;;;2.20;98.60;;;;;;5056326;28;20570;-51
2024/01/21 08:59:41;;;;;;;6.97;2.80;;;2.30;98.70;;;;;;5054789;28;20037;-54
2024/01/21 09:02:07;;;;;;;9.23;3.20;;;2.40;98.80;;;;;;5056126;28;20104;-55
2024/01/21 09:04:32;;;;;;;9.00;3.23;;;2.50;98.40;;;;;;5056031;28;20032;-55
2024/01/21 09:06:58;;;;;;;6.47;2.77;;;2.60;98.30;;;;;;5056288;28;20025;-51
2024/01/21 09:09:23;;;;;;;8.70;3.57;;;2.60;98.40;;;;;;5055621;28;20033;-55
2024/01/21 09:11:50;;;;;;;6.50;3.33;;;2.60;98.30;;;;;;5056261;28;20108;-53
2024/01/21 09:14:16;;;;;;;8.23;1.80;;;2.50;98.00;;;;;;5056147;28;20037;-50
2024/01/21 09:16:42;;;;;;;10.20;3.20;;;2.50;98.20;;;;;;5056352;28;20029;-53
2024/01/21 09:19:07;;;;;;;9.10;3.13;;;2.50;98.00;;;;;;5055362;28;20041;-53
2024/01/21 09:21:34;;;;;;;5.50;1.90;;;2.70;97.90;;;;;;5055620;28;20032;-54
2024/01/21 09:24:03;;;;;;;12.07;3.73;;;2.80;97.80;;;;;;5055382;28;20450;-54
2024/01/21 09:26:30;;;;;;;6.97;2.38;;;2.70;98.00;;;;;;5055691;28;20115;-55
2024/01/21 09:28:55;;;;;;;5.47;2.13;;;2.70;97.80;;;;;;5055708;28;20025;-50
2024/01/21 09:31:21;;;;;;;10.93;3.50;;;2.70;97.80;;;;;;5055826;28;20471;-49
2024/01/21 09:33:47;;;;;;;8.23;3.00;;;2.70;98.00;;;;;;5054280;28;20040;-53
2024/01/21 09:36:15;;;;;;;11.23;3.57;;;2.70;98.30;;;;;;5052765;28;20024;-53
2024/01/21 09:38:41;;;;;;;8.10;1.97;;;2.70;98.10;;;;;;5053531;28;20029;-50
2024/01/21 09:41:06;;;;;;;9.47;2.77;;;2.70;98.00;;;;;;5053555;28;20040;-49
2024/01/21 09:43:33;;;;;;;9.63;3.30;;;2.70;98.10;;;;;;5054109;28;20072;-49
2024/01/21 09:46:00;;;;;;;9.30;3.10;;;2.70;98.10;;;;;;5054298;28;20029;-49
2024/01/21 09:48:27;;;;;;;8.50;2.90;;;2.70;98.10;;;;;;5054432;28;20033;-51
2024/01/21 09:50:55;;;;;;;9.70;3.30;;;2.80;98.20;;;;;;5055253;28;20063;-49
2024/01/21 09:53:21;;;;;;;6.93;2.77;;;2.80;98.10;;;;;;5055207;28;20029;-51
2024/01/21 09:55:54;;;;;;;9.23;3.50;;;2.90;98.10;;;;;;5054012;28;20086;-52
2024/01/21 09:58:22;;;;;;;8.63;2.53;;;3.00;98.00;;;;;;5055655;28;20058;-54
2024/01/21 10:00:49;;;;;;;5.87;2.47;;;3.00;98.20;;;;;;5053687;28;20049;-51
2024/01/21 10:03:15;;;;;;;8.77;3.33;;;3.10;98.00;;;;;;5054902;28;20029;-51
2024/01/21 10:05:41;;;;;;;10.40;3.07;;;3.20;98.20;;;;;;5055302;28;20036;-54
2024/01/21 10:08:08;;;;;;;7.47;3.17;;;3.30;98.00;;;;;;5054732;28;20052;-54
2024/01/21 10:10:34;;;;;;;8.13;3.30;;;3.30;98.00;;;;;;5055438;28;20442;-50
2024/01/21 10:12:59;;;;;;;12.27;3.60;;;3.30;98.20;;;;;;5054172;28;20076;-50
2024/01/21 10:15:25;;;;;;;8.70;3.40;;;3.40;98.30;;;;;;5054480;28;20056;-50
2024/01/21 10:17:51;;;;;;;9.10;3.00;;;3.50;98.10;;;;;;5055587;28;20403;-50
2024/01/21 10:20:18;;;;;;;8.77;3.53;;;3.50;98.20;;;;;;5056004;28;20141;-51
2024/01/21 10:22:44;;;;;;;7.83;3.00;;;3.50;98.30;;;;;;5054908;28;20049;-52
2024/01/21 10:25:13;;;;;;;7.17;3.40;;;3.50;98.30;;;;;;5055026;28;20040;-53
2024/01/21 10:27:40;;;;;;;8.73;3.10;;;3.40;98.40;;;;;;5055339;28;20513;-50
2024/01/21 10:30:08;;;;;;;9.27;3.47;;;3.50;98.60;;;;;;5054888;28;20035;-54
2024/01/21 10:32:34;;;;;;;11.60;3.73;;;3.40;98.30;;;;;;5055189;28;20551;-53
2024/01/21 10:35:00;;;;;;;8.10;3.80;;;3.40;98.50;;;;;;5055003;28;20060;-52
2024/01/21 10:37:28;;;;;;;9.90;3.83;;;3.20;98.60;;;;;;5054907;28;20048;-52
2024/01/21 10:39:55;;;;;;;9.33;3.77;;;3.30;98.80;;;;;;5054889;28;20055;-53
2024/01/21 10:42:21;;;;;;;6.77;3.20;;;3.20;99.10;;;;;;5055003;28;20037;-51
2024/01/21 10:44:47;;;;;;;8.70;3.50;;;3.20;99.30;;;;;;5053671;28;20485;-52
2024/01/21 10:47:14;;;;;;;8.17;3.87;;;3.20;99.50;;;;;;5053563;28;20040;-51
2024/01/21 10:49:42;;;;;;;7.23;3.23;;;3.20;99.60;;;;;;5055113;28;20036;-51
2024/01/21 10:52:11;;;;;;;10.07;4.13;;;3.20;99.90;;;;;;5055211;28;20042;-55
2024/01/21 10:54:37;;;;;;;9.75;3.25;;;3.20;99.90;;;;;;5058728;28;20398;-54
2024/01/21 10:57:03;;;;;;;9.23;3.10;;;3.20;99.90;;;;;;5058733;28;20064;-54
2024/01/21 10:59:31;;;;;;;9.97;3.67;;;3.20;99.90;;;;;;5058732;28;20033;-52
2024/01/21 11:01:57;;;;;;;6.70;3.10;;;3.00;99.90;;;;;;5057506;28;20432;-50
2024/01/21 11:04:22;;;;;;;6.33;3.07;;;3.10;99.90;;;;;;5058825;28;20123;-54
2024/01/21 11:06:48;;;;;;;11.00;4.17;;;3.10;99.90;;;;;;5058611;28;20064;-53
2024/01/21 11:09:21;;;;;;;9.83;3.40;;;3.10;99.90;;;;;;5058986;28;20049;-54
2024/01/21 11:11:48;;;;;;;8.97;3.70;;;3.10;99.90;;;;;;5058302;28;20071;-55
2024/01/21 11:14:36;;;;;;;7.87;3.47;;;3.10;99.90;;;;;;5059041;28;20032;-55
2024/01/21 11:17:03;;;;;;;7.77;3.53;;;3.10;99.90;;;;;;5058546;28;20037;-54
2024/01/21 11:19:55;;;;;;;9.33;3.50;;;3.20;99.90;;;;;;5058015;28;20056;-52
2024/01/21 11:22:23;;;;;;;15.80;3.93;;;3.10;99.90;;;;;;5055603;28;20041;-54
2024/01/21 11:24:52;;;;;;;8.43;3.03;;;3.10;99.90;;;;;;5058280;28;20457;-49
2024/01/21 11:27:27;;;;;;;8.40;3.55;;;3.20;99.90;;;;;;5057044;28;20033;-51
2024/01/21 11:30:01;;;;;;;7.53;3.17;;;3.20;99.90;;;;;;5058359;28;20021;-53
2024/01/21 11:32:29;;;;;;;8.30;3.33;;;3.20;99.90;;;;;;5058057;28;20029;-53
2024/01/21 11:34:55;;;;;;;11.10;3.77;;;3.20;99.90;;;;;;5058476;28;20037;-53
2024/01/21 11:37:22;;;;;;;11.00;3.83;;;3.10;99.90;;;;;;5058492;28;20035;-52
2024/01/21 11:39:49;;;;;;;10.80;3.63;;;3.10;99.90;;;;;;5057797;28;20039;-54
2024/01/21 11:42:15;;;;;;;2.97;1.97;;;3.10;99.90;;;;;;5057191;28;20032;-53
2024/01/21 11:44:41;;;;;;;11.17;4.17;;;3.20;99.90;;;;;;5058147;28;20035;-52
2024/01/21 11:47:07;;;;;;;7.33;3.00;;;3.20;99.90;;;;;;5058072;28;20115;-54
2024/01/21 11:49:35;;;;;;;10.93;3.57;;;3.30;99.90;;;;;;5057867;28;20115;-54
2024/01/21 11:52:05;;;;;;;7.33;3.03;;;3.30;99.90;;;;;;5057739;28;20047;-53
2024/01/21 11:54:39;;;;;;;7.10;3.30;;;3.40;99.90;;;;;;5057783;28;20035;-54
2024/01/21 11:57:06;;;;;;;6.73;2.70;;;3.30;99.90;;;;;;5057906;28;20032;-51
2024/01/21 11:59:32;;;;;;;9.30;4.07;;;3.40;99.90;;;;;;5057013;28;20036;-54
2024/01/21 12:01:57;;;;;;;8.43;3.63;;;3.40;99.90;;;;;;5057291;28;20028;-55
2024/01/21 12:04:24;;;;;;;10.80;3.30;;;3.40;99.90;;;;;;5038861;28;20043;-55
2024/01/21 12:06:52;;;;;;;6.30;3.07;;;3.50;99.90;;;;;;5057255;28;20186;-55
2024/01/21 12:09:18;;;;;;;7.47;3.20;;;3.50;99.90;;;;;;5057481;28;20073;-54
2024/01/21 12:11:47;;;;;;;7.47;3.80;;;3.40;99.90;;;;;;5057232;28;20025;-55
2024/01/21 12:14:13;;;;;;;7.37;2.57;;;3.40;99.90;;;;;;5057387;28;20515;-55
2024/01/21 12:16:40;;;;;;;11.60;4.13;;;3.40;99.90;;;;;;5057215;28;20037;-55
2024/01/21 12:19:06;;;;;;;8.20;3.30;;;3.40;99.90;;;;;;5057145;28;20029;-54
2024/01/21 12:21:32;;;;;;;6.50;3.20;;;3.40;99.90;;;;;;5055753;28;20037;-53
2024/01/21 12:24:00;;;;;;;11.77;3.10;;;3.40;99.90;;;;;;5056452;28;20040;-55
2024/01/21 12:26:26;;;;;;;15.00;4.83;;;3.40;99.90;;;;;;5057455;28;20096;-54
2024/01/21 12:29:06;;;;;;;11.33;4.30;;;3.40;99.90;;;;;;5057657;28;20033;-53
2024/01/21 12:31:37;;;;;;;10.03;3.20;;;3.50;99.90;;;;;;5055414;28;20021;-51
2024/01/21 12:34:05;;;;;;;8.30;3.27;;;3.60;99.90;;;;;;5056897;28;20039;-52
2024/01/21 12:36:33;;;;;;;9.20;4.27;;;3.60;99.90;;;;;;5057988;28;20037;-54
2024/01/21 12:39:00;;;;;;;8.53;3.83;;;3.60;99.90;;;;;;5057507;28;20071;-51
2024/01/21 12:41:26;;;;;;;8.97;4.03;;;3.70;99.90;;;;;;5057127;28;20033;-54
2024/01/21 12:43:52;;;;;;;13.70;4.13;;;3.70;99.90;;;;;;5056835;28;20033;-54
2024/01/21 12:46:19;;;;;;;11.63;4.00;;;3.80;99.90;;;;;;5057281;28;20084;-55
2024/01/21 12:48:45;;;;;;;9.60;3.53;;;3.80;99.90;;;;;;5055404;28;20087;-52
2024/01/21 12:51:11;;;;;;;6.97;3.17;;;3.90;99.90;;;;;;5056746;28;20393;-55